sensor_id;sensor_type;location;lat;lon;timestamp;P1;durP1;ratioP1;P2;durP2;ratioP2
61473;SDS011;53694;49.784;30.150;2022-08-11T00:00:41;10.17;;;7.11;;
61473;SDS011;53694;49.784;30.150;2022-08-11T00:01:45;10.52;;;6.90;;
61473;SDS011;53694;49.784;30.150;2022-08-11T00:02:53;10.21;;;6.99;;
61473;SDS011;53694;49.784;30.150;2022-08-11T00:03:56;7.10;;;5.57;;
61473;SDS011;53694;49.784;30.150;2022-08-11T00:05:04;8.93;;;5.31;;
61473;SDS011;53694;49.784;30.150;2022-08-11T00:06:10;9.67;;;4.89;;
61473;SDS011;53694;49.784;30.150;2022-08-11T00:07:12;8.25;;;5.60;;
61473;SDS011;53694;49.784;30.150;2022-08-11T00:08:21;7.99;;;4.70;;
61473;SDS011;53694;49.784;30.150;2022-08-11T00:09:32;6.73;;;4.61;;
61473;SDS011;53694;49.784;30.150;2022-08-11T00:10:37;7.46;;;5.22;;
61473;SDS011;53694;49.784;30.150;2022-08-11T00:11:41;9.56;;;4.96;;
61473;SDS011;53694;49.784;30.150;2022-08-11T00:12:58;8.23;;;4.42;;
61473;SDS011;53694;49.784;30.150;2022-08-11T00:14:03;9.03;;;5.01;;
61473;SDS011;53694;49.784;30.150;2022-08-11T00:15:07;7.02;;;5.09;;
61473;SDS011;53694;49.784;30.150;2022-08-11T00:16:12;11.77;;;5.92;;
61473;SDS011;53694;49.784;30.150;2022-08-11T00:17:30;8.42;;;5.75;;
61473;SDS011;53694;49.784;30.150;2022-08-11T00:18:39;10.51;;;5.58;;
61473;SDS011;53694;49.784;30.150;2022-08-11T00:19:44;8.66;;;6.41;;
61473;SDS011;53694;49.784;30.150;2022-08-11T00:20:48;11.82;;;6.73;;
61473;SDS011;53694;49.784;30.150;2022-08-11T00:21:52;8.71;;;6.53;;
61473;SDS011;53694;49.784;30.150;2022-08-11T00:23:00;10.96;;;7.10;;
61473;SDS011;53694;49.784;30.150;2022-08-11T00:24:12;10.51;;;6.86;;
61473;SDS011;53694;49.784;30.150;2022-08-11T00:25:17;9.18;;;6.23;;
61473;SDS011;53694;49.784;30.150;2022-08-11T00:26:22;8.37;;;5.62;;
61473;SDS011;53694;49.784;30.150;2022-08-11T00:27:35;7.46;;;5.28;;
61473;SDS011;53694;49.784;30.150;2022-08-11T00:28:38;8.91;;;5.39;;
61473;SDS011;53694;49.784;30.150;2022-08-11T00:29:50;7.57;;;4.76;;
61473;SDS011;53694;49.784;30.150;2022-08-11T00:30:55;9.53;;;5.04;;
61473;SDS011;53694;49.784;30.150;2022-08-11T00:32:00;9.18;;;5.36;;
61473;SDS011;53694;49.784;30.150;2022-08-11T00:33:05;6.97;;;5.21;;
61473;SDS011;53694;49.784;30.150;2022-08-11T00:34:09;11.31;;;6.30;;
61473;SDS011;53694;49.784;30.150;2022-08-11T00:35:13;16.07;;;10.57;;
61473;SDS011;53694;49.784;30.150;2022-08-11T00:36:18;15.43;;;10.04;;
61473;SDS011;53694;49.784;30.150;2022-08-11T00:37:22;23.07;;;15.78;;
61473;SDS011;53694;49.784;30.150;2022-08-11T00:38:25;8.96;;;6.88;;
61473;SDS011;53694;49.784;30.150;2022-08-11T00:39:31;12.38;;;8.36;;
61473;SDS011;53694;49.784;30.150;2022-08-11T00:40:36;13.22;;;9.05;;
61473;SDS011;53694;49.784;30.150;2022-08-11T00:45:38;10.26;;;5.88;;
61473;SDS011;53694;49.784;30.150;2022-08-11T00:46:54;7.59;;;5.31;;
61473;SDS011;53694;49.784;30.150;2022-08-11T00:48:09;8.49;;;5.18;;
61473;SDS011;53694;49.784;30.150;2022-08-11T01:02:21;8.50;;;5.87;;
61473;SDS011;53694;49.784;30.150;2022-08-11T01:03:29;8.87;;;7.01;;
61473;SDS011;53694;49.784;30.150;2022-08-11T01:05:59;9.81;;;6.95;;
61473;SDS011;53694;49.784;30.150;2022-08-11T01:12:27;7.92;;;4.86;;
61473;SDS011;53694;49.784;30.150;2022-08-11T01:16:06;9.28;;;4.69;;
61473;SDS011;53694;49.784;30.150;2022-08-11T01:18:43;6.59;;;4.31;;
61473;SDS011;53694;49.784;30.150;2022-08-11T01:30:10;11.19;;;6.89;;
61473;SDS011;53694;49.784;30.150;2022-08-11T01:33:22;10.11;;;5.68;;
61473;SDS011;53694;49.784;30.150;2022-08-11T01:42:23;8.84;;;5.86;;
61473;SDS011;53694;49.784;30.150;2022-08-11T01:47:30;8.38;;;6.61;;
61473;SDS011;53694;49.784;30.150;2022-08-11T01:48:40;10.08;;;7.07;;
61473;SDS011;53694;49.784;30.150;2022-08-11T01:50:07;9.09;;;6.93;;
61473;SDS011;53694;49.784;30.150;2022-08-11T01:51:23;8.48;;;6.39;;
61473;SDS011;53694;49.784;30.150;2022-08-11T01:52:52;9.01;;;6.68;;
61473;SDS011;53694;49.784;30.150;2022-08-11T01:54:08;8.34;;;5.69;;
61473;SDS011;53694;49.784;30.150;2022-08-11T01:57:03;8.21;;;4.87;;
61473;SDS011;53694;49.784;30.150;2022-08-11T01:58:12;8.07;;;5.07;;
61473;SDS011;53694;49.784;30.150;2022-08-11T01:59:38;6.94;;;4.80;;
61473;SDS011;53694;49.784;30.150;2022-08-11T02:02:02;9.26;;;4.36;;
61473;SDS011;53694;49.784;30.150;2022-08-11T02:03:19;6.88;;;4.71;;
61473;SDS011;53694;49.784;30.150;2022-08-11T02:04:30;7.16;;;4.42;;
61473;SDS011;53694;49.784;30.150;2022-08-11T02:08:50;9.68;;;5.33;;
61473;SDS011;53694;49.784;30.150;2022-08-11T02:11:36;9.49;;;5.85;;
61473;SDS011;53694;49.784;30.150;2022-08-11T02:12:52;8.17;;;6.23;;
61473;SDS011;53694;49.784;30.150;2022-08-11T02:15:28;9.37;;;6.38;;
61473;SDS011;53694;49.784;30.150;2022-08-11T02:16:55;11.66;;;6.62;;
61473;SDS011;53694;49.784;30.150;2022-08-11T02:18:31;7.64;;;5.27;;
61473;SDS011;53694;49.784;30.150;2022-08-11T02:19:47;11.27;;;6.74;;
61473;SDS011;53694;49.784;30.150;2022-08-11T02:21:05;9.30;;;6.19;;
61473;SDS011;53694;49.784;30.150;2022-08-11T02:24:48;8.85;;;5.49;;
61473;SDS011;53694;49.784;30.150;2022-08-11T02:26:00;8.03;;;5.12;;
61473;SDS011;53694;49.784;30.150;2022-08-11T02:27:08;9.10;;;4.61;;
61473;SDS011;53694;49.784;30.150;2022-08-11T02:30:05;8.95;;;6.05;;
61473;SDS011;53694;49.784;30.150;2022-08-11T02:31:14;9.50;;;5.81;;
61473;SDS011;53694;49.784;30.150;2022-08-11T02:32:28;9.43;;;6.71;;
61473;SDS011;53694;49.784;30.150;2022-08-11T02:33:35;7.14;;;5.85;;
61473;SDS011;53694;49.784;30.150;2022-08-11T02:36:00;11.79;;;6.66;;
61473;SDS011;53694;49.784;30.150;2022-08-11T02:38:19;7.64;;;5.17;;
61473;SDS011;53694;49.784;30.150;2022-08-11T02:39:22;8.36;;;5.18;;
61473;SDS011;53694;49.784;30.150;2022-08-11T02:40:42;9.77;;;4.87;;
61473;SDS011;53694;49.784;30.150;2022-08-11T02:43:21;9.55;;;4.33;;
61473;SDS011;53694;49.784;30.150;2022-08-11T02:46:03;9.17;;;4.59;;
61473;SDS011;53694;49.784;30.150;2022-08-11T02:49:50;7.51;;;4.94;;
61473;SDS011;53694;49.784;30.150;2022-08-11T02:52:42;10.07;;;5.17;;
61473;SDS011;53694;49.784;30.150;2022-08-11T02:56:36;8.73;;;6.22;;
61473;SDS011;53694;49.784;30.150;2022-08-11T02:59:22;8.56;;;5.83;;
61473;SDS011;53694;49.784;30.150;2022-08-11T03:00:29;9.54;;;5.38;;
61473;SDS011;53694;49.784;30.150;2022-08-11T03:01:44;9.67;;;5.22;;
61473;SDS011;53694;49.784;30.150;2022-08-11T03:04:04;6.93;;;4.43;;
61473;SDS011;53694;49.784;30.150;2022-08-11T03:06:40;7.37;;;4.69;;
61473;SDS011;53694;49.784;30.150;2022-08-11T03:08:07;5.64;;;4.27;;
61473;SDS011;53694;49.784;30.150;2022-08-11T03:09:13;8.37;;;4.74;;
61473;SDS011;53694;49.784;30.150;2022-08-11T03:10:23;6.11;;;4.32;;
61473;SDS011;53694;49.784;30.150;2022-08-11T03:13:03;6.63;;;4.31;;
61473;SDS011;53694;49.784;30.150;2022-08-11T03:15:18;7.34;;;5.41;;
61473;SDS011;53694;49.784;30.150;2022-08-11T03:16:28;9.51;;;5.81;;
61473;SDS011;53694;49.784;30.150;2022-08-11T03:17:41;7.94;;;5.62;;
61473;SDS011;53694;49.784;30.150;2022-08-11T03:18:53;7.63;;;6.01;;
61473;SDS011;53694;49.784;30.150;2022-08-11T03:22:33;11.14;;;5.80;;
61473;SDS011;53694;49.784;30.150;2022-08-11T03:25:07;7.66;;;4.76;;
61473;SDS011;53694;49.784;30.150;2022-08-11T03:26:13;6.13;;;4.31;;
61473;SDS011;53694;49.784;30.150;2022-08-11T03:29:00;7.41;;;4.58;;
61473;SDS011;53694;49.784;30.150;2022-08-11T03:30:14;6.73;;;4.75;;
61473;SDS011;53694;49.784;30.150;2022-08-11T03:31:21;6.94;;;4.61;;
61473;SDS011;53694;49.784;30.150;2022-08-11T03:32:31;7.25;;;4.36;;
61473;SDS011;53694;49.784;30.150;2022-08-11T03:33:40;6.41;;;4.45;;
61473;SDS011;53694;49.784;30.150;2022-08-11T03:34:46;6.88;;;4.59;;
61473;SDS011;53694;49.784;30.150;2022-08-11T03:36:01;8.62;;;5.57;;
61473;SDS011;53694;49.784;30.150;2022-08-11T03:38:47;12.21;;;8.49;;
61473;SDS011;53694;49.784;30.150;2022-08-11T03:40:05;15.96;;;12.21;;
61473;SDS011;53694;49.784;30.150;2022-08-11T03:41:34;9.06;;;6.78;;
61473;SDS011;53694;49.784;30.150;2022-08-11T03:52:18;6.62;;;4.46;;
61473;SDS011;53694;49.784;30.150;2022-08-11T03:55:22;7.04;;;5.10;;
61473;SDS011;53694;49.784;30.150;2022-08-11T04:00:49;7.99;;;5.99;;
61473;SDS011;53694;49.784;30.150;2022-08-11T04:07:22;7.65;;;5.71;;
61473;SDS011;53694;49.784;30.150;2022-08-11T04:30:02;10.95;;;7.26;;
61473;SDS011;53694;49.784;30.150;2022-08-11T04:34:11;7.47;;;4.63;;
61473;SDS011;53694;49.784;30.150;2022-08-11T04:41:19;7.16;;;4.46;;
61473;SDS011;53694;49.784;30.150;2022-08-11T04:45:52;8.21;;;4.70;;
61473;SDS011;53694;49.784;30.150;2022-08-11T04:50:16;8.50;;;6.04;;
61473;SDS011;53694;49.784;30.150;2022-08-11T04:53:04;10.07;;;6.41;;
61473;SDS011;53694;49.784;30.150;2022-08-11T04:54:20;9.04;;;6.51;;
61473;SDS011;53694;49.784;30.150;2022-08-11T04:56:57;7.90;;;4.79;;
61473;SDS011;53694;49.784;30.150;2022-08-11T05:00:40;7.17;;;4.57;;
61473;SDS011;53694;49.784;30.150;2022-08-11T05:10:00;7.98;;;4.97;;
61473;SDS011;53694;49.784;30.150;2022-08-11T05:12:25;8.62;;;5.89;;
61473;SDS011;53694;49.784;30.150;2022-08-11T05:13:48;7.67;;;6.06;;
61473;SDS011;53694;49.784;30.150;2022-08-11T05:14:52;10.38;;;6.95;;
61473;SDS011;53694;49.784;30.150;2022-08-11T05:15:55;8.51;;;6.34;;
61473;SDS011;53694;49.784;30.150;2022-08-11T05:17:14;10.69;;;6.44;;
61473;SDS011;53694;49.784;30.150;2022-08-11T05:18:19;9.76;;;6.67;;
61473;SDS011;53694;49.784;30.150;2022-08-11T05:19:23;8.95;;;7.11;;
61473;SDS011;53694;49.784;30.150;2022-08-11T05:20:26;8.53;;;5.86;;
61473;SDS011;53694;49.784;30.150;2022-08-11T05:21:29;8.94;;;5.60;;
61473;SDS011;53694;49.784;30.150;2022-08-11T05:22:33;8.48;;;5.26;;
61473;SDS011;53694;49.784;30.150;2022-08-11T05:23:38;7.51;;;5.17;;
61473;SDS011;53694;49.784;30.150;2022-08-11T05:24:42;8.13;;;4.78;;
61473;SDS011;53694;49.784;30.150;2022-08-11T05:25:46;6.93;;;5.00;;
61473;SDS011;53694;49.784;30.150;2022-08-11T05:26:50;8.78;;;5.11;;
61473;SDS011;53694;49.784;30.150;2022-08-11T05:27:58;8.01;;;5.01;;
61473;SDS011;53694;49.784;30.150;2022-08-11T05:29:02;6.92;;;5.11;;
61473;SDS011;53694;49.784;30.150;2022-08-11T05:30:07;7.04;;;5.38;;
61473;SDS011;53694;49.784;30.150;2022-08-11T05:31:11;7.80;;;5.46;;
61473;SDS011;53694;49.784;30.150;2022-08-11T05:32:15;9.15;;;5.91;;
61473;SDS011;53694;49.784;30.150;2022-08-11T05:33:22;7.30;;;5.83;;
61473;SDS011;53694;49.784;30.150;2022-08-11T05:34:27;9.32;;;6.45;;
61473;SDS011;53694;49.784;30.150;2022-08-11T05:35:37;10.29;;;6.67;;
61473;SDS011;53694;49.784;30.150;2022-08-11T05:36:47;9.34;;;6.65;;
61473;SDS011;53694;49.784;30.150;2022-08-11T05:37:51;11.32;;;7.26;;
61473;SDS011;53694;49.784;30.150;2022-08-11T05:39:00;10.81;;;7.30;;
61473;SDS011;53694;49.784;30.150;2022-08-11T05:40:09;10.36;;;6.50;;
61473;SDS011;53694;49.784;30.150;2022-08-11T05:41:10;10.49;;;6.65;;
61473;SDS011;53694;49.784;30.150;2022-08-11T05:42:12;8.63;;;5.45;;
61473;SDS011;53694;49.784;30.150;2022-08-11T05:43:17;9.66;;;5.58;;
61473;SDS011;53694;49.784;30.150;2022-08-11T05:44:19;6.93;;;4.99;;
61473;SDS011;53694;49.784;30.150;2022-08-11T05:45:21;8.63;;;5.15;;
61473;SDS011;53694;49.784;30.150;2022-08-11T05:46:24;9.68;;;5.09;;
61473;SDS011;53694;49.784;30.150;2022-08-11T05:47:28;8.52;;;5.34;;
61473;SDS011;53694;49.784;30.150;2022-08-11T05:48:33;8.71;;;5.67;;
61473;SDS011;53694;49.784;30.150;2022-08-11T05:49:36;10.14;;;6.09;;
61473;SDS011;53694;49.784;30.150;2022-08-11T05:50:39;9.52;;;6.19;;
61473;SDS011;53694;49.784;30.150;2022-08-11T05:51:42;8.95;;;6.34;;
61473;SDS011;53694;49.784;30.150;2022-08-11T05:52:45;9.76;;;6.91;;
61473;SDS011;53694;49.784;30.150;2022-08-11T05:53:52;9.29;;;7.26;;
61473;SDS011;53694;49.784;30.150;2022-08-11T05:54:59;10.32;;;7.76;;
61473;SDS011;53694;49.784;30.150;2022-08-11T05:56:04;10.07;;;7.82;;
61473;SDS011;53694;49.784;30.150;2022-08-11T05:57:07;14.87;;;8.60;;
61473;SDS011;53694;49.784;30.150;2022-08-11T05:58:11;11.04;;;6.84;;
61473;SDS011;53694;49.784;30.150;2022-08-11T05:59:13;10.25;;;6.48;;
61473;SDS011;53694;49.784;30.150;2022-08-11T06:00:19;12.32;;;5.88;;
61473;SDS011;53694;49.784;30.150;2022-08-11T06:01:29;10.81;;;5.69;;
61473;SDS011;53694;49.784;30.150;2022-08-11T06:02:33;8.07;;;4.94;;
61473;SDS011;53694;49.784;30.150;2022-08-11T06:03:44;8.78;;;5.84;;
61473;SDS011;53694;49.784;30.150;2022-08-11T06:04:53;7.53;;;5.51;;
61473;SDS011;53694;49.784;30.150;2022-08-11T06:05:58;10.38;;;5.43;;
61473;SDS011;53694;49.784;30.150;2022-08-11T06:07:02;7.23;;;5.28;;
61473;SDS011;53694;49.784;30.150;2022-08-11T06:08:06;9.68;;;6.40;;
61473;SDS011;53694;49.784;30.150;2022-08-11T06:09:09;9.41;;;6.22;;
61473;SDS011;53694;49.784;30.150;2022-08-11T06:10:12;8.74;;;6.21;;
61473;SDS011;53694;49.784;30.150;2022-08-11T06:11:14;7.95;;;5.94;;
61473;SDS011;53694;49.784;30.150;2022-08-11T06:12:21;8.21;;;6.56;;
61473;SDS011;53694;49.784;30.150;2022-08-11T06:13:28;8.92;;;6.83;;
61473;SDS011;53694;49.784;30.150;2022-08-11T06:14:31;10.24;;;7.70;;
61473;SDS011;53694;49.784;30.150;2022-08-11T06:15:42;12.46;;;7.17;;
61473;SDS011;53694;49.784;30.150;2022-08-11T06:16:49;11.63;;;7.41;;
61473;SDS011;53694;49.784;30.150;2022-08-11T06:17:53;10.11;;;8.14;;
61473;SDS011;53694;49.784;30.150;2022-08-11T06:18:56;11.01;;;7.91;;
61473;SDS011;53694;49.784;30.150;2022-08-11T06:20:00;10.39;;;6.72;;
61473;SDS011;53694;49.784;30.150;2022-08-11T06:21:09;10.45;;;6.93;;
61473;SDS011;53694;49.784;30.150;2022-08-11T06:22:12;8.43;;;6.47;;
61473;SDS011;53694;49.784;30.150;2022-08-11T06:23:16;8.44;;;5.55;;
61473;SDS011;53694;49.784;30.150;2022-08-11T06:24:19;10.21;;;5.87;;
61473;SDS011;53694;49.784;30.150;2022-08-11T06:25:21;7.17;;;4.89;;
61473;SDS011;53694;49.784;30.150;2022-08-11T06:26:26;6.14;;;5.20;;
61473;SDS011;53694;49.784;30.150;2022-08-11T06:27:29;8.67;;;5.77;;
61473;SDS011;53694;49.784;30.150;2022-08-11T06:28:33;9.16;;;6.01;;
61473;SDS011;53694;49.784;30.150;2022-08-11T06:29:37;9.98;;;6.46;;
61473;SDS011;53694;49.784;30.150;2022-08-11T06:30:43;9.23;;;6.44;;
61473;SDS011;53694;49.784;30.150;2022-08-11T06:31:52;9.28;;;6.99;;
61473;SDS011;53694;49.784;30.150;2022-08-11T06:33:02;10.84;;;7.47;;
61473;SDS011;53694;49.784;30.150;2022-08-11T06:36:31;11.26;;;8.23;;
61473;SDS011;53694;49.784;30.150;2022-08-11T06:39:11;13.41;;;8.18;;
61473;SDS011;53694;49.784;30.150;2022-08-11T06:41:33;11.29;;;6.16;;
61473;SDS011;53694;49.784;30.150;2022-08-11T06:46:32;8.74;;;5.69;;
61473;SDS011;53694;49.784;30.150;2022-08-11T06:47:36;9.12;;;6.12;;
61473;SDS011;53694;49.784;30.150;2022-08-11T06:48:41;10.01;;;6.36;;
61473;SDS011;53694;49.784;30.150;2022-08-11T06:49:46;11.73;;;6.21;;
61473;SDS011;53694;49.784;30.150;2022-08-11T06:50:51;14.86;;;7.87;;
61473;SDS011;53694;49.784;30.150;2022-08-11T06:52:01;10.73;;;7.44;;
61473;SDS011;53694;49.784;30.150;2022-08-11T06:53:08;12.38;;;7.27;;
61473;SDS011;53694;49.784;30.150;2022-08-11T06:54:09;8.90;;;6.99;;
61473;SDS011;53694;49.784;30.150;2022-08-11T06:55:21;9.97;;;7.24;;
61473;SDS011;53694;49.784;30.150;2022-08-11T06:56:25;11.74;;;7.59;;
61473;SDS011;53694;49.784;30.150;2022-08-11T06:57:32;14.56;;;7.73;;
61473;SDS011;53694;49.784;30.150;2022-08-11T06:58:37;11.16;;;8.41;;
61473;SDS011;53694;49.784;30.150;2022-08-11T06:59:46;8.96;;;5.96;;
61473;SDS011;53694;49.784;30.150;2022-08-11T07:00:59;10.36;;;6.46;;
61473;SDS011;53694;49.784;30.150;2022-08-11T07:02:16;11.44;;;6.13;;
61473;SDS011;53694;49.784;30.150;2022-08-11T07:03:43;10.78;;;6.61;;
61473;SDS011;53694;49.784;30.150;2022-08-11T07:04:58;12.52;;;6.39;;
61473;SDS011;53694;49.784;30.150;2022-08-11T07:06:21;10.97;;;6.12;;
61473;SDS011;53694;49.784;30.150;2022-08-11T07:10:32;8.34;;;5.69;;
61473;SDS011;53694;49.784;30.150;2022-08-11T07:13:03;10.41;;;6.87;;
61473;SDS011;53694;49.784;30.150;2022-08-11T07:14:05;11.77;;;7.25;;
61473;SDS011;53694;49.784;30.150;2022-08-11T07:15:08;10.57;;;6.65;;
61473;SDS011;53694;49.784;30.150;2022-08-11T07:16:17;8.41;;;7.07;;
61473;SDS011;53694;49.784;30.150;2022-08-11T07:17:21;11.93;;;7.55;;
61473;SDS011;53694;49.784;30.150;2022-08-11T07:18:28;11.32;;;7.75;;
61473;SDS011;53694;49.784;30.150;2022-08-11T07:19:35;11.46;;;8.69;;
61473;SDS011;53694;49.784;30.150;2022-08-11T07:20:39;11.26;;;8.07;;
61473;SDS011;53694;49.784;30.150;2022-08-11T07:21:45;9.76;;;6.39;;
61473;SDS011;53694;49.784;30.150;2022-08-11T07:22:49;11.99;;;7.78;;
61473;SDS011;53694;49.784;30.150;2022-08-11T07:23:53;9.47;;;6.06;;
61473;SDS011;53694;49.784;30.150;2022-08-11T07:25:00;7.75;;;5.50;;
61473;SDS011;53694;49.784;30.150;2022-08-11T07:26:05;8.51;;;5.80;;
61473;SDS011;53694;49.784;30.150;2022-08-11T07:27:10;8.32;;;5.92;;
61473;SDS011;53694;49.784;30.150;2022-08-11T07:28:16;7.51;;;5.08;;
61473;SDS011;53694;49.784;30.150;2022-08-11T07:29:21;8.37;;;5.22;;
61473;SDS011;53694;49.784;30.150;2022-08-11T07:30:24;10.03;;;5.09;;
61473;SDS011;53694;49.784;30.150;2022-08-11T07:31:37;8.69;;;5.91;;
61473;SDS011;53694;49.784;30.150;2022-08-11T07:32:47;7.63;;;4.91;;
61473;SDS011;53694;49.784;30.150;2022-08-11T07:33:50;9.79;;;5.50;;
61473;SDS011;53694;49.784;30.150;2022-08-11T07:35:01;7.97;;;5.46;;
61473;SDS011;53694;49.784;30.150;2022-08-11T07:36:00;8.87;;;5.62;;
61473;SDS011;53694;49.784;30.150;2022-08-11T07:37:09;10.15;;;6.19;;
61473;SDS011;53694;49.784;30.150;2022-08-11T07:38:15;8.39;;;6.28;;
61473;SDS011;53694;49.784;30.150;2022-08-11T07:39:26;9.99;;;6.86;;
61473;SDS011;53694;49.784;30.150;2022-08-11T07:40:30;9.49;;;6.92;;
61473;SDS011;53694;49.784;30.150;2022-08-11T07:41:32;10.55;;;7.23;;
61473;SDS011;53694;49.784;30.150;2022-08-11T07:42:39;12.18;;;7.34;;
61473;SDS011;53694;49.784;30.150;2022-08-11T07:43:41;11.43;;;7.04;;
61473;SDS011;53694;49.784;30.150;2022-08-11T07:44:44;9.19;;;5.79;;
61473;SDS011;53694;49.784;30.150;2022-08-11T07:45:47;12.63;;;6.71;;
61473;SDS011;53694;49.784;30.150;2022-08-11T07:46:49;13.85;;;6.41;;
61473;SDS011;53694;49.784;30.150;2022-08-11T07:47:53;12.94;;;6.48;;
61473;SDS011;53694;49.784;30.150;2022-08-11T07:48:55;9.42;;;5.77;;
61473;SDS011;53694;49.784;30.150;2022-08-11T07:49:58;10.89;;;5.79;;
61473;SDS011;53694;49.784;30.150;2022-08-11T07:51:00;9.30;;;5.52;;
61473;SDS011;53694;49.784;30.150;2022-08-11T07:52:06;9.59;;;5.46;;
61473;SDS011;53694;49.784;30.150;2022-08-11T07:53:09;7.96;;;4.86;;
61473;SDS011;53694;49.784;30.150;2022-08-11T07:54:13;8.24;;;5.29;;
61473;SDS011;53694;49.784;30.150;2022-08-11T07:55:15;9.61;;;5.45;;
61473;SDS011;53694;49.784;30.150;2022-08-11T07:56:18;7.64;;;4.76;;
61473;SDS011;53694;49.784;30.150;2022-08-11T07:57:20;8.20;;;4.43;;
61473;SDS011;53694;49.784;30.150;2022-08-11T07:58:22;7.00;;;5.01;;
61473;SDS011;53694;49.784;30.150;2022-08-11T07:59:26;7.76;;;5.29;;
61473;SDS011;53694;49.784;30.150;2022-08-11T08:00:41;7.16;;;5.41;;
61473;SDS011;53694;49.784;30.150;2022-08-11T08:01:41;7.97;;;5.96;;
61473;SDS011;53694;49.784;30.150;2022-08-11T08:02:43;11.58;;;8.42;;
61473;SDS011;53694;49.784;30.150;2022-08-11T08:03:45;9.31;;;7.19;;
61473;SDS011;53694;49.784;30.150;2022-08-11T08:04:48;9.95;;;6.92;;
61473;SDS011;53694;49.784;30.150;2022-08-11T08:05:50;8.63;;;7.23;;
61473;SDS011;53694;49.784;30.150;2022-08-11T08:06:53;9.71;;;6.39;;
61473;SDS011;53694;49.784;30.150;2022-08-11T08:07:56;7.83;;;5.80;;
61473;SDS011;53694;49.784;30.150;2022-08-11T08:08:58;8.17;;;5.73;;
61473;SDS011;53694;49.784;30.150;2022-08-11T08:10:00;7.83;;;5.35;;
61473;SDS011;53694;49.784;30.150;2022-08-11T08:11:02;7.73;;;5.33;;
61473;SDS011;53694;49.784;30.150;2022-08-11T08:12:04;8.17;;;5.18;;
61473;SDS011;53694;49.784;30.150;2022-08-11T08:13:07;6.81;;;5.26;;
61473;SDS011;53694;49.784;30.150;2022-08-11T08:14:09;9.09;;;5.86;;
61473;SDS011;53694;49.784;30.150;2022-08-11T08:15:13;6.77;;;5.07;;
61473;SDS011;53694;49.784;30.150;2022-08-11T08:16:16;6.64;;;4.45;;
61473;SDS011;53694;49.784;30.150;2022-08-11T08:17:20;8.99;;;6.31;;
61473;SDS011;53694;49.784;30.150;2022-08-11T08:18:23;7.77;;;5.59;;
61473;SDS011;53694;49.784;30.150;2022-08-11T08:19:25;8.53;;;6.11;;
61473;SDS011;53694;49.784;30.150;2022-08-11T08:20:33;8.44;;;6.41;;
61473;SDS011;53694;49.784;30.150;2022-08-11T08:21:39;10.76;;;7.80;;
61473;SDS011;53694;49.784;30.150;2022-08-11T08:22:42;10.91;;;7.06;;
61473;SDS011;53694;49.784;30.150;2022-08-11T08:23:45;11.01;;;6.57;;
61473;SDS011;53694;49.784;30.150;2022-08-11T08:24:48;9.02;;;7.33;;
61473;SDS011;53694;49.784;30.150;2022-08-11T08:25:50;9.45;;;6.41;;
61473;SDS011;53694;49.784;30.150;2022-08-11T08:26:53;8.77;;;5.95;;
61473;SDS011;53694;49.784;30.150;2022-08-11T08:27:56;8.19;;;5.81;;
61473;SDS011;53694;49.784;30.150;2022-08-11T08:29:01;7.14;;;5.88;;
61473;SDS011;53694;49.784;30.150;2022-08-11T08:30:05;8.19;;;5.89;;
61473;SDS011;53694;49.784;30.150;2022-08-11T08:31:07;13.41;;;5.46;;
61473;SDS011;53694;49.784;30.150;2022-08-11T08:32:09;8.01;;;5.14;;
61473;SDS011;53694;49.784;30.150;2022-08-11T08:34:23;8.73;;;6.04;;
61473;SDS011;53694;49.784;30.150;2022-08-11T08:35:26;8.24;;;5.69;;
61473;SDS011;53694;49.784;30.150;2022-08-11T08:36:28;8.30;;;6.27;;
61473;SDS011;53694;49.784;30.150;2022-08-11T08:37:30;10.17;;;6.48;;
61473;SDS011;53694;49.784;30.150;2022-08-11T08:38:32;9.39;;;6.87;;
61473;SDS011;53694;49.784;30.150;2022-08-11T08:39:35;9.23;;;6.40;;
61473;SDS011;53694;49.784;30.150;2022-08-11T08:40:41;10.83;;;7.21;;
61473;SDS011;53694;49.784;30.150;2022-08-11T08:41:44;12.40;;;7.84;;
61473;SDS011;53694;49.784;30.150;2022-08-11T08:42:57;11.48;;;8.05;;
61473;SDS011;53694;49.784;30.150;2022-08-11T08:44:03;9.84;;;7.57;;
61473;SDS011;53694;49.784;30.150;2022-08-11T08:45:09;10.42;;;7.99;;
61473;SDS011;53694;49.784;30.150;2022-08-11T08:46:15;11.19;;;8.87;;
61473;SDS011;53694;49.784;30.150;2022-08-11T08:47:20;9.30;;;6.82;;
61473;SDS011;53694;49.784;30.150;2022-08-11T08:48:25;10.18;;;7.21;;
61473;SDS011;53694;49.784;30.150;2022-08-11T08:49:31;8.23;;;6.04;;
61473;SDS011;53694;49.784;30.150;2022-08-11T08:50:39;9.20;;;6.43;;
61473;SDS011;53694;49.784;30.150;2022-08-11T08:51:42;11.91;;;8.76;;
61473;SDS011;53694;49.784;30.150;2022-08-11T08:52:53;11.53;;;6.45;;
61473;SDS011;53694;49.784;30.150;2022-08-11T08:53:59;9.85;;;6.74;;
61473;SDS011;53694;49.784;30.150;2022-08-11T08:55:03;10.98;;;6.70;;
61473;SDS011;53694;49.784;30.150;2022-08-11T08:56:06;8.46;;;7.00;;
61473;SDS011;53694;49.784;30.150;2022-08-11T08:57:10;10.70;;;7.20;;
61473;SDS011;53694;49.784;30.150;2022-08-11T08:58:13;12.14;;;7.98;;
61473;SDS011;53694;49.784;30.150;2022-08-11T08:59:16;9.88;;;7.36;;
61473;SDS011;53694;49.784;30.150;2022-08-11T09:00:23;14.83;;;8.34;;
61473;SDS011;53694;49.784;30.150;2022-08-11T09:01:25;9.11;;;7.43;;
61473;SDS011;53694;49.784;30.150;2022-08-11T09:02:30;10.60;;;8.33;;
61473;SDS011;53694;49.784;30.150;2022-08-11T09:03:35;12.47;;;8.75;;
61473;SDS011;53694;49.784;30.150;2022-08-11T09:04:38;13.47;;;10.63;;
61473;SDS011;53694;49.784;30.150;2022-08-11T09:05:41;11.52;;;9.43;;
61473;SDS011;53694;49.784;30.150;2022-08-11T09:06:43;13.93;;;9.03;;
61473;SDS011;53694;49.784;30.150;2022-08-11T09:07:48;12.94;;;10.30;;
61473;SDS011;53694;49.784;30.150;2022-08-11T09:08:53;15.04;;;10.98;;
61473;SDS011;53694;49.784;30.150;2022-08-11T09:09:57;11.48;;;8.44;;
61473;SDS011;53694;49.784;30.150;2022-08-11T09:11:00;11.03;;;8.14;;
61473;SDS011;53694;49.784;30.150;2022-08-11T09:12:04;11.79;;;9.30;;
61473;SDS011;53694;49.784;30.150;2022-08-11T09:13:07;11.43;;;6.73;;
61473;SDS011;53694;49.784;30.150;2022-08-11T09:14:09;9.61;;;7.62;;
61473;SDS011;53694;49.784;30.150;2022-08-11T09:15:11;11.66;;;7.73;;
61473;SDS011;53694;49.784;30.150;2022-08-11T09:16:15;11.86;;;8.64;;
61473;SDS011;53694;49.784;30.150;2022-08-11T09:17:18;9.22;;;7.17;;
61473;SDS011;53694;49.784;30.150;2022-08-11T09:18:21;12.74;;;8.00;;
61473;SDS011;53694;49.784;30.150;2022-08-11T09:19:23;9.64;;;7.39;;
61473;SDS011;53694;49.784;30.150;2022-08-11T09:20:27;11.70;;;8.52;;
61473;SDS011;53694;49.784;30.150;2022-08-11T09:21:30;13.14;;;9.21;;
61473;SDS011;53694;49.784;30.150;2022-08-11T09:22:37;10.43;;;8.59;;
61473;SDS011;53694;49.784;30.150;2022-08-11T09:23:41;11.75;;;9.38;;
61473;SDS011;53694;49.784;30.150;2022-08-11T09:24:46;13.99;;;9.94;;
61473;SDS011;53694;49.784;30.150;2022-08-11T09:25:54;11.93;;;9.34;;
61473;SDS011;53694;49.784;30.150;2022-08-11T09:26:57;12.03;;;10.13;;
61473;SDS011;53694;49.784;30.150;2022-08-11T09:28:01;12.68;;;10.69;;
61473;SDS011;53694;49.784;30.150;2022-08-11T09:29:03;14.53;;;10.58;;
61473;SDS011;53694;49.784;30.150;2022-08-11T09:30:06;10.95;;;8.39;;
61473;SDS011;53694;49.784;30.150;2022-08-11T09:31:11;9.66;;;6.86;;
61473;SDS011;53694;49.784;30.150;2022-08-11T09:32:18;11.99;;;7.14;;
61473;SDS011;53694;49.784;30.150;2022-08-11T09:33:22;9.93;;;7.14;;
61473;SDS011;53694;49.784;30.150;2022-08-11T09:34:25;7.99;;;6.08;;